Morgan, Minnesota
Current Conditions -  °F | °C
As of 8:31 PM on Sunday 25 Jan 2015 (Local Time) from KRWF Reporting Station
Broken Clouds Broken Clouds  
Wind Chill: 22°   Ceiling: 2100
Heat Index: 30°   Visibility: 10mi
Dew Point: 25°   Wind: 8mph
Humidity: 82%   Direction: 180°S
Pressure: 30.02"   Gusts: NA
Location:  44.42°N, 94.93°W
Report Text: KRWF 260231Z AUTO 18007KT 10SM SCT012 BKN021 M01/M04 A3002 RMK AO2 T10111039
Loading
Personal Weather Stations






























Interactive Weather Map New forecast layout! Learn more

10-Day Weather Forecast

Advertisements
Track Severe Weather on mobile